• Join FlightAware (Why Join?)
  • Login
  • US Flag 
11:28PM EDT


 

Airport Tracker/Info


-or-


 

Live Flight TrackerFlight Track Log ✈ XA-RET ✈ 24-Jul-2013 ✈ EGGW / LTN - KTEB

Flight Track Log - Related Links

Times and Time Zones

All times are in EDT time to prevent confusion due to time zone crossing. See the XA-RET flight status page for this flight to view local times or setup timezone preferences in your user account.

Time Position Orientation Groundspeed Altitude Reporting Facility
EDT Latitude Longitude Course Direction KTS MPH feet Rate Location/Type
09:56AM 51.8715 -0.3929 226° Southwest 184 212 1,400  Level FlightAware UK
09:57AM 51.8335 -0.4562 226° Southwest 228 262 4,700 2,160 Climbing FlightAware UK
09:57AM 51.8061 -0.4851 213° Southwest 266 306 4,900 180 Climbing FlightAware UK
09:58AM 51.7984 -0.5412 258° West 272 313 4,900  Level FlightAware UK
09:58AM 51.7908 -0.5980 258° West 272 313 4,900 1,140 Level FlightAware UK
09:59AM 51.7769 -0.6869 256° West 274 315 6,400 1,380 Climbing FlightAware UK
10:00AM 51.7637 -0.7673 255° West 278 320 7,000 420 Climbing FlightAware UK
10:00AM 51.7389 -0.8235 235° Southwest 280 322 7,000 120 Level FlightAware UK
10:01AM 51.6880 -0.9065 225° Southwest 282 325 7,200 1,560 Climbing FlightAware UK
10:02AM 51.6573 -0.9558 225° Southwest 286 329 9,500 3,180 Climbing FlightAware UK
10:02AM 51.6306 -0.9982 225° Southwest 312 359 10,700 2,220 Climbing FlightAware UK
10:03AM 51.6062 -1.1032 250° West 364 419 12,400 1,740 Climbing FlightAware UK
10:04AM 51.6024 -1.1789 265° West 364 419 13,000 480 Climbing FlightAware UK
10:04AM 51.5975 -1.2857 266° West 366 421 13,000 1,080 Level FlightAware UK
10:06AM 51.5862 -1.5318 266° West 380 437 15,500 2,160 Climbing FlightAware UK
10:08AM 51.6327 -1.8063 285° West 408 470 20,200 2,880 Climbing FlightAware UK
10:08AM 51.6584 -1.9394 287° West 418 481 22,700 2,640 Climbing FlightAware UK
10:09AM 51.6833 -2.0737 287° West 434 499 24,500 2,220 Climbing FlightAware UK
10:10AM 51.7000 -2.1609 287° West 442 509 25,600 2,580 Climbing FlightAware UK
10:10AM 51.7091 -2.2499 279° West 446 513 27,100 2,340 Climbing FlightAware UK
10:11AM 51.7186 -2.3954 276° West 462 532 28,700 2,220 Climbing FlightAware UK
10:12AM 51.7238 -2.4868 275° West 466 536 30,000 1,980 Climbing FlightAware UK
10:13AM 51.7350 -2.6899 275° West 480 552 31,900 1,740 Climbing FlightAware UK
10:13AM 51.7421 -2.8203 275° West 478 550 33,200 1,800 Climbing FlightAware UK
10:14AM 51.7506 -2.9317 277° West 476 548 34,300 1,440 Climbing FlightAware UK
10:14AM 51.7595 -3.0261 279° West 490 564 34,800 1,560 Climbing FlightAware UK
10:15AM 51.7700 -3.1381 279° West 480 552 36,000 1,200 Climbing FlightAware UK
10:16AM 51.7840 -3.3500 276° West 484 557 36,900 1,320 Climbing FlightAware UK
10:17AM 51.7975 -3.5475 276° West 478 550 38,800 1,200 Climbing FlightAware UK
10:18AM 51.8068 -3.6844 276° West 482 555 39,000 120 Climbing FlightAware UK
10:18AM 51.8136 -3.7857 276° West 488 562 39,000  Level FlightAware UK
10:19AM 51.8249 -3.9481 276° West 486 559 39,000  Level FlightAware UK
10:20AM 51.8399 -4.1886 276° West 488 562 39,000  Level FlightAware UK
10:21AM 51.8463 -4.2889 276° West 488 562 39,000  Level FlightAware UK
10:21AM 51.8525 -4.3889 276° West 486 559 39,000 180 Level FlightAware UK
10:22AM 51.8586 -4.4870 276° West 482 555 39,200 600 Climbing FlightAware UK
10:23AM 51.8721 -4.7079 276° West 482 555 40,000 780 Climbing FlightAware UK
10:23AM 51.8780 -4.8090 275° West 484 557 40,500 660 Climbing FlightAware UK
10:24AM 51.8861 -4.9514 275° West 486 559 40,800 660 Climbing FlightAware UK
10:25AM 51.8943 -5.0959 275° West 484 557 41,500 840 Climbing FlightAware UK
10:26AM 51.9049 -5.2818 275° West 482 555 42,200 780 Climbing FlightAware UK
10:26AM 51.9122 -5.4272 275° West 482 555 42,800 480 Climbing FlightAware UK
10:27AM 51.9210 -5.5937 275° West 486 559 43,000 120 Climbing FlightAware UK
10:28AM 51.9262 -5.6991 275° West 490 564 43,000  Level FlightAware UK
10:28AM 51.9315 -5.8055 275° West 490 564 43,000  Level FlightAware UK
10:29AM 51.9327 -5.9116 271° West 488 562 43,000  Level FlightAware UK
10:30AM 51.9206 -6.1193 265° West 488 562 43,000  Level FlightAware UK
10:30AM 51.9137 -6.2233 264° West 486 559 43,000  Level FlightAware UK
10:31AM 51.9069 -6.3272 264° West 486 559 43,000  Level FlightAware UK
10:31AM 51.8998 -6.4311 264° West 488 562 43,000  Level FlightAware UK
10:32AM 51.8926 -6.5352 264° West 488 562 43,000  Level FlightAware UK
10:32AM 51.8855 -6.6393 264° West 488 562 43,000  Level FlightAware UK
10:33AM 51.8784 -6.7432 264° West 486 559 43,000  Level FlightAware UK
10:33AM 51.8698 -6.8681 264° West 490 564 43,000  Level FlightAware UK
10:34AM 51.8623 -6.9721 263° West 490 564 43,000  Level FlightAware UK
10:34AM 51.8549 -7.0758 263° West 486 559 43,000  Level FlightAware UK
10:35AM 51.8462 -7.1993 264° West 490 564 43,000  Level FlightAware UK
10:35AM 51.8386 -7.3028 263° West 490 564 43,000  Level FlightAware UK
10:36AM 51.8305 -7.4062 263° West 492 566 43,000  Level FlightAware UK
10:36AM 51.8225 -7.5089 263° West 486 559 43,000  Level FlightAware UK
10:37AM 51.8159 -7.6108 264° West 486 559 43,000  Level FlightAware UK
10:37AM 51.8085 -7.7126 263° West 486 559 43,000  Level FlightAware UK
10:38AM 51.8004 -7.8147 263° West 488 562 43,000  Level FlightAware UK
10:38AM 51.7920 -7.9171 262° West 490 564 43,000  Level FlightAware UK
10:39AM 51.7835 -8.0197 262° West 490 564 43,000  Level FlightAware UK
10:39AM 51.7742 -8.1220 262° West 488 562 43,000  Level FlightAware UK
10:40AM 51.7656 -8.2242 262° West 488 562 43,000  Level FlightAware UK
10:41AM 51.7556 -8.3466 263° West 490 564 43,000  Level FlightAware UK
10:41AM 51.7471 -8.4492 262° West 490 564 43,000  Level FlightAware UK
10:42AM 51.7382 -8.5519 262° West 488 562 43,000  Level FlightAware UK
10:42AM 51.7291 -8.6543 262° West 490 564 43,000  Level FlightAware UK
10:43AM 51.7201 -8.7569 262° West 492 566 43,000  Level FlightAware UK
10:43AM 51.7113 -8.8593 262° West 492 566 43,000  Level FlightAware UK
10:44AM 51.7023 -8.9613 262° West 488 562 43,000  Level FlightAware UK
10:46AM 51.6768 -9.2072 261° West  Level FlightAware Approximate
10:53AM 51.5818 -10.0803 260° West  Level FlightAware Approximate
10:54AM 51.5677 -10.2047 260° West  Level FlightAware Approximate
10:55AM 51.5535 -10.3290 260° West  Level FlightAware Approximate
10:56AM 51.5391 -10.4533 260° West  Level FlightAware Approximate
10:57AM 51.5247 -10.5775 259° West  Level FlightAware Approximate
10:58AM 51.5100 -10.7016 259° West  Level FlightAware Approximate
10:59AM 51.4953 -10.8256 259° West  Level FlightAware Approximate
11:00AM 51.4804 -10.9495 259° West  Level FlightAware Approximate
11:01AM 51.4654 -11.0734 259° West  Level FlightAware Approximate
11:02AM 51.4502 -11.1972 259° West  Level FlightAware Approximate
11:03AM 51.4350 -11.3209 259° West  Level FlightAware Approximate
11:04AM 51.4196 -11.4445 259° West  Level FlightAware Approximate
11:05AM 51.4040 -11.5680 259° West  Level FlightAware Approximate
11:06AM 51.3884 -11.6915 259° West  Level FlightAware Approximate
11:07AM 51.3726 -11.8148 258° West  Level FlightAware Approximate
11:08AM 51.3567 -11.9381 258° West  Level FlightAware Approximate
11:09AM 51.3406 -12.0613 258° West  Level FlightAware Approximate
11:10AM 51.3244 -12.1844 258° West  Level FlightAware Approximate
11:11AM 51.3081 -12.3074 258° West  Level FlightAware Approximate
11:12AM 51.2917 -12.4303 258° West  Level FlightAware Approximate
11:13AM 51.2751 -12.5532 258° West  Level FlightAware Approximate
11:14AM 51.2584 -12.6759 258° West  Level FlightAware Approximate
11:15AM 51.2416 -12.7986 258° West  Level FlightAware Approximate
11:16AM 51.2247 -12.9212 258° West  Level FlightAware Approximate
11:17AM 51.2076 -13.0436 257° West  Level FlightAware Approximate
11:18AM 51.1904 -13.1660 257° West  Level FlightAware Approximate
11:19AM 51.1731 -13.2883 257° West  Level FlightAware Approximate
11:20AM 51.1556 -13.4105 257° West  Level FlightAware Approximate
11:21AM 51.1380 -13.5326 257° West  Level FlightAware Approximate
11:22AM 51.1203 -13.6547 257° West  Level FlightAware Approximate
11:23AM 51.1025 -13.7766 257° West  Level FlightAware Approximate
11:24AM 51.0845 -13.8984 257° West  Level FlightAware Approximate
11:25AM 51.0664 -14.0202 257° West  Level FlightAware Approximate
11:26AM 51.0482 -14.1418 257° West  Level FlightAware Approximate
11:27AM 51.0298 -14.2633 257° West  Level FlightAware Approximate
11:28AM 51.0079 -14.4063 256° West  Level FlightAware Approximate
11:29AM 50.9857 -14.5490 256° West  Level FlightAware Approximate
11:30AM 50.9632 -14.6916 256° West  Level FlightAware Approximate
11:31AM 50.9406 -14.8341 256° West  Level FlightAware Approximate
11:32AM 50.9178 -14.9764 256° West  Level FlightAware Approximate
11:33AM 50.8952 -15.1187 256° West  Level FlightAware Approximate
11:34AM 50.8724 -15.2609 256° West  Level FlightAware Approximate
11:35AM 50.8495 -15.4030 256° West  Level FlightAware Approximate
11:36AM 50.8264 -15.5449 256° West  Level FlightAware Approximate
11:37AM 50.8032 -15.6867 255° West  Level FlightAware Approximate
11:38AM 50.7797 -15.8283 255° West  Level FlightAware Approximate
11:39AM 50.7561 -15.9698 255° West  Level FlightAware Approximate
11:40AM 50.7323 -16.1112 255° West  Level FlightAware Approximate
11:40AM 50.0000 -20.0000 257° West 465 535 43,000  Level ETMS Enhanced Traffic Management System
11:41AM 50.7084 -16.2524 255° West  Level FlightAware Approximate
11:42AM 50.6843 -16.3934 255° West  Level FlightAware Approximate
11:43AM 50.6600 -16.5343 255° West  Level FlightAware Approximate
11:44AM 50.6355 -16.6751 255° West  Level FlightAware Approximate
11:45AM 50.6109 -16.8157 255° West  Level FlightAware Approximate
11:46AM 50.5861 -16.9562 255° West  Level FlightAware Approximate
11:47AM 49.7223 -21.7530 256° West 465 535 43,000  Level FlightAware Transoceanic
11:48AM 49.6898 -21.9465 255° West 465 535 43,000  Level FlightAware Transoceanic
11:49AM 49.6570 -22.1398 255° West 465 535 43,000  Level FlightAware Transoceanic
11:50AM 49.6239 -22.3328 255° West 465 535 43,000  Level FlightAware Transoceanic
11:51AM 49.5905 -22.5255 255° West 465 535 43,000  Level FlightAware Transoceanic
11:52AM 49.5567 -22.7180 255° West 465 535 43,000  Level FlightAware Transoceanic
11:53AM 49.5226 -22.9102 255° West 465 535 43,000  Level FlightAware Transoceanic
11:54AM 49.4882 -23.1021 254° West 465 535 43,000  Level FlightAware Transoceanic
11:55AM 49.4535 -23.2937 254° West 465 535 43,000  Level FlightAware Transoceanic
11:56AM 49.4185 -23.4851 254° West 465 535 43,000  Level FlightAware Transoceanic
11:57AM 49.3831 -23.6762 254° West 465 535 43,000  Level FlightAware Transoceanic
11:58AM 49.3475 -23.8671 254° West 465 535 43,000  Level FlightAware Transoceanic
11:59AM 49.3115 -24.0576 254° West 465 535 43,000  Level FlightAware Transoceanic
12:00PM 49.2752 -24.2479 254° West 465 535 43,000  Level FlightAware Transoceanic
12:01PM 49.2386 -24.4379 253° West 465 535 43,000  Level FlightAware Transoceanic
12:02PM 49.2017 -24.6276 253° West 465 535 43,000  Level FlightAware Transoceanic
12:03PM 49.1645 -24.8171 253° West 465 535 43,000  Level FlightAware Transoceanic
12:04PM 49.1270 -25.0062 253° West 465 535 43,000  Level FlightAware Transoceanic
12:05PM 49.0891 -25.1950 253° West 465 535 43,000  Level FlightAware Transoceanic
12:06PM 49.0510 -25.3836 253° West 465 535 43,000  Level FlightAware Transoceanic
12:07PM 49.0125 -25.5719 253° West 465 535 43,000  Level FlightAware Transoceanic
12:08PM 48.9738 -25.7599 252° West 465 535 43,000  Level FlightAware Transoceanic
12:09PM 48.9347 -25.9476 252° West 465 535 43,000  Level FlightAware Transoceanic
12:10PM 48.8953 -26.1350 252° West 465 535 43,000  Level FlightAware Transoceanic
12:11PM 48.8557 -26.3221 252° West 465 535 43,000  Level FlightAware Transoceanic
12:12PM 48.8157 -26.5089 252° West 465 535 43,000  Level FlightAware Transoceanic
12:13PM 48.7754 -26.6954 252° West 465 535 43,000  Level FlightAware Transoceanic
12:14PM 48.7349 -26.8816 252° West 465 535 43,000  Level FlightAware Transoceanic
12:15PM 48.6940 -27.0675 252° West 465 535 43,000  Level FlightAware Transoceanic
12:16PM 48.6528 -27.2531 251° West 465 535 43,000  Level FlightAware Transoceanic
12:17PM 48.6113 -27.4384 251° West 465 535 43,000  Level FlightAware Transoceanic
12:18PM 48.5696 -27.6234 251° West 465 535 43,000  Level FlightAware Transoceanic
12:19PM 48.5275 -27.8081 251° West 465 535 43,000  Level FlightAware Transoceanic
12:20PM 48.4851 -27.9925 251° West 465 535 43,000  Level FlightAware Transoceanic
12:21PM 48.4425 -28.1765 251° West 465 535 43,000  Level FlightAware Transoceanic
12:22PM 48.3995 -28.3603 251° West 465 535 43,000  Level FlightAware Transoceanic
12:23PM 48.3563 -28.5437 250° West 465 535 43,000  Level FlightAware Transoceanic
12:24PM 48.3128 -28.7269 250° West 465 535 43,000  Level FlightAware Transoceanic
12:25PM 48.2690 -28.9097 250° West 465 535 43,000  Level FlightAware Transoceanic
12:26PM 48.2248 -29.0922 250° West 465 535 43,000  Level FlightAware Transoceanic
12:27PM 48.1805 -29.2744 250° West 465 535 43,000  Level FlightAware Transoceanic
12:28PM 48.1358 -29.4563 250° West 465 535 43,000  Level FlightAware Transoceanic
12:29PM 48.0908 -29.6378 250° West 465 535 43,000  Level FlightAware Transoceanic
12:30PM 48.0455 -29.8191 249° West 465 535 43,000  Level FlightAware Transoceanic
12:31PM 48.0130 -29.9486 249° West  Level FlightAware Approximate
12:32PM 47.9803 -30.0780 249° West  Level FlightAware Approximate
12:33PM 47.9958 -30.0278 257° West  Level FlightAware Approximate
12:34PM 47.9752 -30.1626 257° West  Level FlightAware Approximate
12:34PM 48.0000 -30.0000 257° West 456 525 43,000  Level ETMS Enhanced Traffic Management System
12:35PM 47.9544 -30.2973 257° West  Level FlightAware Approximate
12:36PM 47.9335 -30.4319 257° West  Level FlightAware Approximate
12:36PM 48.0000 -30.0000 257° West 456 525 43,000  Level ETMS Enhanced Traffic Management System
12:37PM 47.9124 -30.5664 257° West  Level FlightAware Approximate
12:38PM 47.8911 -30.7007 257° West  Level FlightAware Approximate
12:39PM 47.8697 -30.8350 257° West  Level FlightAware Approximate
12:40PM 47.7383 -31.6560 256° West 456 525 43,000  Level FlightAware Transoceanic
12:41PM 47.7077 -31.8389 256° West 456 525 43,000  Level FlightAware Transoceanic
12:42PM 47.6769 -32.0217 256° West 456 525 43,000  Level FlightAware Transoceanic
12:43PM 47.6458 -32.2042 256° West 456 525 43,000  Level FlightAware Transoceanic
12:44PM 47.6143 -32.3865 256° West 456 525 43,000  Level FlightAware Transoceanic
12:45PM 47.5826 -32.5686 255° West 456 525 43,000  Level FlightAware Transoceanic
12:46PM 47.5507 -32.7504 255° West 456 525 43,000  Level FlightAware Transoceanic
12:47PM 47.5184 -32.9321 255° West 456 525 43,000  Level FlightAware Transoceanic
12:48PM 47.4858 -33.1135 255° West 456 525 43,000  Level FlightAware Transoceanic
12:49PM 47.4530 -33.2947 255° West 456 525 43,000  Level FlightAware Transoceanic
12:50PM 47.4198 -33.4756 255° West 456 525 43,000  Level FlightAware Transoceanic
12:51PM 47.3864 -33.6564 255° West 456 525 43,000  Level FlightAware Transoceanic
12:52PM 47.3527 -33.8369 255° West 456 525 43,000  Level FlightAware Transoceanic
12:53PM 47.3187 -34.0171 254° West 456 525 43,000  Level FlightAware Transoceanic
12:54PM 47.2845 -34.1972 254° West 456 525 43,000  Level FlightAware Transoceanic
12:55PM 47.2499 -34.3770 254° West 456 525 43,000  Level FlightAware Transoceanic
12:56PM 47.2151 -34.5565 254° West 456 525 43,000  Level FlightAware Transoceanic
12:57PM 47.1800 -34.7359 254° West 456 525 43,000  Level FlightAware Transoceanic
12:58PM 47.1446 -34.9150 254° West 456 525 43,000  Level FlightAware Transoceanic
12:59PM 47.1089 -35.0938 254° West 456 525 43,000  Level FlightAware Transoceanic
01:00PM 47.0730 -35.2724 253° West 456 525 43,000  Level FlightAware Transoceanic
01:01PM 47.0367 -35.4508 253° West 456 525 43,000  Level FlightAware Transoceanic
01:02PM 47.0002 -35.6289 253° West 456 525 43,000  Level FlightAware Transoceanic
01:03PM 46.9635 -35.8068 253° West 456 525 43,000  Level FlightAware Transoceanic
01:04PM 46.9264 -35.9845 253° West 456 525 43,000  Level FlightAware Transoceanic
01:05PM 46.8891 -36.1619 253° West 456 525 43,000  Level FlightAware Transoceanic
01:06PM 46.8515 -36.3390 253° West 456 525 43,000  Level FlightAware Transoceanic
01:07PM 46.8136 -36.5159 253° West 456 525 43,000  Level FlightAware Transoceanic
01:08PM 46.7755 -36.6926 252° West 456 525 43,000  Level FlightAware Transoceanic
01:09PM 46.7370 -36.8689 252° West 456 525 43,000  Level FlightAware Transoceanic
01:10PM 46.6983 -37.0451 252° West 456 525 43,000  Level FlightAware Transoceanic
01:11PM 46.6594 -37.2210 252° West 456 525 43,000  Level FlightAware Transoceanic
01:12PM 46.6202 -37.3966 252° West 456 525 43,000  Level FlightAware Transoceanic
01:13PM 46.5807 -37.5720 252° West 456 525 43,000  Level FlightAware Transoceanic
01:14PM 46.5409 -37.7471 252° West 456 525 43,000  Level FlightAware Transoceanic
01:15PM 46.5009 -37.9220 252° West 456 525 43,000  Level FlightAware Transoceanic
01:16PM 46.4606 -38.0966 251° West 456 525 43,000  Level FlightAware Transoceanic
01:17PM 46.4200 -38.2710 251° West 456 525 43,000  Level FlightAware Transoceanic
01:18PM 46.3792 -38.4450 251° West 456 525 43,000  Level FlightAware Transoceanic
01:19PM 46.3381 -38.6189 251° West 456 525 43,000  Level FlightAware Transoceanic
01:20PM 46.2968 -38.7924 251° West 456 525 43,000  Level FlightAware Transoceanic
01:21PM 46.2551 -38.9657 251° West 456 525 43,000  Level FlightAware Transoceanic
01:22PM 46.2133 -39.1388 251° West 456 525 43,000  Level FlightAware Transoceanic
01:23PM 46.1711 -39.3116 251° West 456 525 43,000  Level FlightAware Transoceanic
01:24PM 46.1287 -39.4841 250° West 456 525 43,000  Level FlightAware Transoceanic
01:25PM 46.0861 -39.6563 250° West 456 525 43,000  Level FlightAware Transoceanic
01:26PM 46.0432 -39.8283 250° West 456 525 43,000  Level FlightAware Transoceanic
01:27PM 46.0117 -39.9536 250° West  Level FlightAware Approximate
01:28PM 45.9801 -40.0788 250° West  Level FlightAware Approximate
01:29PM 45.9949 -40.0338 258° West  Level FlightAware Approximate
01:29PM 46.0000 -40.0000 258° West 448 516 43,000  Level ETMS Enhanced Traffic Management System
01:30PM 45.9749 -40.1639 258° West  Level FlightAware Approximate
01:31PM 45.9548 -40.2939 258° West  Level FlightAware Approximate
01:32PM 45.9346 -40.4237 257° West  Level FlightAware Approximate
01:33PM 45.9142 -40.5535 257° West  Level FlightAware Approximate
01:34PM 45.8937 -40.6832 257° West  Level FlightAware Approximate
01:35PM 45.8731 -40.8128 257° West  Level FlightAware Approximate
01:36PM 45.7234 -41.7425 257° West 448 516 43,000  Level FlightAware Transoceanic
01:37PM 45.6943 -41.9157 256° West 448 516 43,000  Level FlightAware Transoceanic
01:38PM 45.6649 -42.0888 256° West 448 516 43,000  Level FlightAware Transoceanic
01:39PM 45.6353 -42.2618 256° West 448 516 43,000  Level FlightAware Transoceanic
01:40PM 45.6054 -42.4345 256° West 448 516 43,000  Level FlightAware Transoceanic
01:41PM 45.5753 -42.6070 256° West 448 516 43,000  Level FlightAware Transoceanic
01:42PM 45.5449 -42.7794 256° West 448 516 43,000  Level FlightAware Transoceanic
01:43PM 45.5142 -42.9516 256° West 448 516 43,000  Level FlightAware Transoceanic
01:44PM 45.4833 -43.1236 256° West 448 516 43,000  Level FlightAware Transoceanic
01:45PM 45.4521 -43.2954 255° West 448 516 43,000  Level FlightAware Transoceanic
01:46PM 45.4206 -43.4670 255° West 448 516 43,000  Level FlightAware Transoceanic
01:47PM 45.3889 -43.6384 255° West 448 516 43,000  Level FlightAware Transoceanic
01:48PM 45.3570 -43.8096 255° West 448 516 43,000  Level FlightAware Transoceanic
01:49PM 45.3248 -43.9806 255° West 448 516 43,000  Level FlightAware Transoceanic
01:50PM 45.2923 -44.1515 255° West 448 516 43,000  Level FlightAware Transoceanic
01:51PM 45.2596 -44.3221 255° West 448 516 43,000  Level FlightAware Transoceanic
01:52PM 45.2266 -44.4925 255° West 448 516 43,000  Level FlightAware Transoceanic
01:53PM 45.1934 -44.6628 254° West 448 516 43,000  Level FlightAware Transoceanic
01:54PM 45.1599 -44.8328 254° West 448 516 43,000  Level FlightAware Transoceanic
01:55PM 45.1261 -45.0027 254° West 448 516 43,000  Level FlightAware Transoceanic
01:56PM 45.0922 -45.1723 254° West 448 516 43,000  Level FlightAware Transoceanic
01:57PM 45.0579 -45.3417 254° West 448 516 43,000  Level FlightAware Transoceanic
01:58PM 45.0234 -45.5110 254° West 448 516 43,000  Level FlightAware Transoceanic
01:59PM 44.9887 -45.6800 254° West 448 516 43,000  Level FlightAware Transoceanic
02:00PM 44.9537 -45.8488 254° West 448 516 43,000  Level FlightAware Transoceanic
02:01PM 44.9185 -46.0174 253° West 448 516 43,000  Level FlightAware Transoceanic
02:02PM 44.8830 -46.1858 253° West 448 516 43,000  Level FlightAware Transoceanic
02:03PM 44.8473 -46.3540 253° West 448 516 43,000  Level FlightAware Transoceanic
02:04PM 44.8113 -46.5220 253° West 448 516 43,000  Level FlightAware Transoceanic
02:05PM 44.7751 -46.6898 253° West 448 516 43,000  Level FlightAware Transoceanic
02:06PM 44.7386 -46.8574 253° West 448 516 43,000  Level FlightAware Transoceanic
02:07PM 44.7019 -47.0247 253° West 448 516 43,000  Level FlightAware Transoceanic
02:08PM 44.6650 -47.1919 253° West 448 516 43,000  Level FlightAware Transoceanic
02:09PM 44.6278 -47.3588 253° West 448 516 43,000  Level FlightAware Transoceanic
02:10PM 44.5903 -47.5255 252° West 448 516 43,000  Level FlightAware Transoceanic
02:11PM 44.5526 -47.6920 252° West 448 516 43,000  Level FlightAware Transoceanic
02:12PM 44.5147 -47.8583 252° West 448 516 43,000  Level FlightAware Transoceanic
02:13PM 44.4766 -48.0244 252° West 448 516 43,000  Level FlightAware Transoceanic
02:14PM 44.4381 -48.1902 252° West 448 516 43,000  Level FlightAware Transoceanic
02:15PM 44.3995 -48.3559 252° West 448 516 43,000  Level FlightAware Transoceanic
02:16PM 44.3606 -48.5213 252° West 448 516 43,000  Level FlightAware Transoceanic
02:17PM 44.3215 -48.6865 252° West 448 516 43,000  Level FlightAware Transoceanic
02:18PM 44.2821 -48.8514 252° West 448 516 43,000  Level FlightAware Transoceanic
02:19PM 44.2425 -49.0162 251° West 448 516 43,000  Level FlightAware Transoceanic
02:20PM 44.2027 -49.1807 251° West 448 516 43,000  Level FlightAware Transoceanic
02:21PM 44.1626 -49.3450 251° West 448 516 43,000  Level FlightAware Transoceanic
02:22PM 44.1223 -49.5091 251° West 448 516 43,000  Level FlightAware Transoceanic
02:23PM 44.0818 -49.6730 251° West 448 516 43,000  Level FlightAware Transoceanic
02:24PM 44.0410 -49.8366 251° West 448 516 43,000  Level FlightAware Transoceanic
02:25PM 44.0105 -49.9581 251° West  Level FlightAware Approximate
02:26PM 43.9799 -50.0795 251° West  Level FlightAware Approximate
02:27PM 43.9940 -50.0391 258° West  Level FlightAware Approximate
02:28PM 43.9747 -50.1649 258° West  Level FlightAware Approximate
02:28PM 44.0000 -50.0000 258° West 463 533 43,000  Level New York Oceanic (ODAPS)
02:29PM 43.9553 -50.2906 258° West  Level FlightAware Approximate
02:30PM 43.9357 -50.4162 258° West  Level FlightAware Approximate
02:31PM 43.9160 -50.5418 258° West  Level FlightAware Approximate
02:32PM 43.8961 -50.6673 258° West  Level FlightAware Approximate
02:33PM 43.8761 -50.7926 258° West  Level FlightAware Approximate
02:34PM 43.7521 -51.5661 257° West 463 533 43,000  Level FlightAware Transoceanic
02:35PM 43.7233 -51.7393 257° West 463 533 43,000  Level FlightAware Transoceanic
02:36PM 43.6941 -51.9123 257° West 463 533 43,000  Level FlightAware Transoceanic
02:37PM 43.6647 -52.0851 257° West 463 533 43,000  Level FlightAware Transoceanic
02:38PM 43.6351 -52.2578 257° West 463 533 43,000  Level FlightAware Transoceanic
02:39PM 43.6052 -52.4303 256° West 463 533 43,000  Level FlightAware Transoceanic
02:40PM 43.5751 -52.6027 256° West 463 533 43,000  Level FlightAware Transoceanic
02:41PM 43.5446 -52.7748 256° West 463 533 43,000  Level FlightAware Transoceanic
02:42PM 43.5140 -52.9468 256° West 463 533 43,000  Level FlightAware Transoceanic
02:43PM 43.4830 -53.1186 256° West 463 533 43,000  Level FlightAware Transoceanic
02:44PM 43.4518 -53.2903 256° West 463 533 43,000  Level FlightAware Transoceanic
02:45PM 43.4204 -53.4618 256° West 463 533 43,000  Level FlightAware Transoceanic
02:46PM 43.3887 -53.6330 256° West 463 533 43,000  Level FlightAware Transoceanic
02:47PM 43.3567 -53.8041 256° West 463 533 43,000  Level FlightAware Transoceanic
02:48PM 43.3245 -53.9751 255° West 463 533 43,000  Level FlightAware Transoceanic
02:49PM 43.2920 -54.1458 255° West 463 533 43,000  Level FlightAware Transoceanic
02:50PM 43.2593 -54.3164 255° West 463 533 43,000  Level FlightAware Transoceanic
02:51PM 43.2263 -54.4867 255° West 463 533 43,000  Level FlightAware Transoceanic
02:52PM 43.1931 -54.6569 255° West 463 533 43,000  Level FlightAware Transoceanic
02:53PM 43.1596 -54.8269 255° West 463 533 43,000  Level FlightAware Transoceanic
02:54PM 43.1259 -54.9967 255° West 463 533 43,000  Level FlightAware Transoceanic
02:55PM 43.0919 -55.1664 255° West 463 533 43,000  Level FlightAware Transoceanic
02:56PM 43.0577 -55.3358 254° West 463 533 43,000  Level FlightAware Transoceanic
02:57PM 43.0232 -55.5051 254° West 463 533 43,000  Level FlightAware Transoceanic
02:58PM 42.9885 -55.6741 254° West 463 533 43,000  Level FlightAware Transoceanic
02:59PM 42.9535 -55.8430 254° West 463 533 43,000  Level FlightAware Transoceanic
03:00PM 42.9183 -56.0117 254° West 463 533 43,000  Level FlightAware Transoceanic
03:01PM 42.8828 -56.1802 254° West 463 533 43,000  Level FlightAware Transoceanic
03:02PM 42.8471 -56.3485 254° West 463 533 43,000  Level FlightAware Transoceanic
03:03PM 42.8111 -56.5165 254° West 463 533 43,000  Level FlightAware Transoceanic
03:04PM 42.7749 -56.6844 254° West 463 533 43,000  Level FlightAware Transoceanic
03:05PM 42.7384 -56.8521 253° West 463 533 43,000  Level FlightAware Transoceanic
03:06PM 42.7017 -57.0196 253° West 463 533 43,000  Level FlightAware Transoceanic
03:07PM 42.6648 -57.1870 253° West 463 533 43,000  Level FlightAware Transoceanic
03:08PM 42.6276 -57.3541 253° West 463 533 43,000  Level FlightAware Transoceanic
03:09PM 42.5902 -57.5210 253° West 463 533 43,000  Level FlightAware Transoceanic
03:10PM 42.5525 -57.6877 253° West 463 533 43,000  Level FlightAware Transoceanic
03:11PM 42.5146 -57.8542 253° West 463 533 43,000  Level FlightAware Transoceanic
03:12PM 42.4764 -58.0205 253° West 463 533 43,000  Level FlightAware Transoceanic
03:13PM 42.4380 -58.1866 253° West 463 533 43,000  Level FlightAware Transoceanic
03:14PM 42.3994 -58.3525 252° West 463 533 43,000  Level FlightAware Transoceanic
03:15PM 42.3605 -58.5182 252° West 463 533 43,000  Level FlightAware Transoceanic
03:16PM 42.3214 -58.6836 252° West 463 533 43,000  Level FlightAware Transoceanic
03:17PM 42.2821 -58.8489 252° West 463 533 43,000  Level FlightAware Transoceanic
03:18PM 42.2425 -59.0140 252° West 463 533 43,000  Level FlightAware Transoceanic
03:19PM 42.2026 -59.1788 252° West 463 533 43,000  Level FlightAware Transoceanic
03:20PM 42.1626 -59.3435 252° West 463 533 43,000  Level FlightAware Transoceanic
03:21PM 42.1223 -59.5079 252° West 463 533 43,000  Level FlightAware Transoceanic
03:22PM 42.0818 -59.6722 252° West 463 533 43,000  Level FlightAware Transoceanic
03:23PM 42.0410 -59.8362 251° West 463 533 43,000  Level FlightAware Transoceanic
03:24PM 42.0000 -60.0000 263° West 463 533 43,000  Level FlightAware Transoceanic
03:25PM 41.9840 -60.1687 263° West 463 533 43,000  Level FlightAware Transoceanic
03:25PM 42.0000 -60.0000 263° West 456 525 43,000  Level New York Oceanic (ODAPS)
03:26PM 41.9677 -60.3374 263° West 463 533 43,000  Level FlightAware Transoceanic
03:27PM 41.9511 -60.5060 262° West 463 533 43,000  Level FlightAware Transoceanic
03:28PM 41.9343 -60.6744 262° West 463 533 43,000  Level FlightAware Transoceanic
03:29PM 41.9173 -60.8428 262° West 463 533 43,000  Level FlightAware Transoceanic
03:30PM 41.9000 -61.0111 262° West 463 533 43,000  Level FlightAware Transoceanic
03:31PM 41.8825 -61.1793 262° West 456 525 43,000  Level FlightAware Transoceanic
03:32PM 41.8647 -61.3475 262° West 456 525 43,000  Level FlightAware Transoceanic
03:33PM 41.8467 -61.5155 262° West 456 525 43,000  Level FlightAware Transoceanic
03:34PM 41.8284 -61.6834 262° West 456 525 43,000  Level FlightAware Transoceanic
03:35PM 41.8099 -61.8512 262° West 456 525 43,000  Level FlightAware Transoceanic
03:36PM 41.7911 -62.0190 261° West 456 525 43,000  Level FlightAware Transoceanic
03:37PM 41.7721 -62.1866 261° West 456 525 43,000  Level FlightAware Transoceanic
03:38PM 41.7529 -62.3541 261° West 456 525 43,000  Level FlightAware Transoceanic
03:39PM 41.7334 -62.5215 261° West 456 525 43,000  Level FlightAware Transoceanic
03:40PM 41.7137 -62.6889 261° West 456 525 43,000  Level FlightAware Transoceanic
03:41PM 41.6937 -62.8561 261° West 456 525 43,000  Level FlightAware Transoceanic
03:42PM 41.6735 -63.0232 261° West 456 525 43,000  Level FlightAware Transoceanic
03:43PM 41.6531 -63.1902 261° West 456 525 43,000  Level FlightAware Transoceanic
03:44PM 41.6324 -63.3572 261° West 456 525 43,000  Level FlightAware Transoceanic
03:45PM 41.6114 -63.5239 260° West 456 525 43,000  Level FlightAware Transoceanic
03:46PM 41.5903 -63.6906 260° West 456 525 43,000  Level FlightAware Transoceanic
03:47PM 41.5688 -63.8572 260° West 456 525 43,000  Level FlightAware Transoceanic
03:48PM 41.5472 -64.0237 260° West 456 525 43,000  Level FlightAware Transoceanic
03:49PM 41.5253 -64.1900 260° West 456 525 43,000  Level FlightAware Transoceanic
03:50PM 41.5032 -64.3563 260° West 456 525 43,000  Level FlightAware Transoceanic
03:51PM 41.4808 -64.5224 260° West 456 525 43,000  Level FlightAware Transoceanic
03:52PM 41.4582 -64.6885 260° West 456 525 43,000  Level FlightAware Transoceanic
03:53PM 41.4353 -64.8543 260° West 456 525 43,000  Level FlightAware Transoceanic
03:54PM 41.4122 -65.0201 259° West 456 525 43,000  Level FlightAware Transoceanic
03:55PM 41.3889 -65.1858 259° West 456 525 43,000  Level FlightAware Transoceanic
03:56PM 41.3653 -65.3513 259° West 456 525 43,000  Level FlightAware Transoceanic
03:57PM 41.3415 -65.5168 259° West 456 525 43,000  Level FlightAware Transoceanic
03:58PM 41.3175 -65.6821 259° West 456 525 43,000  Level FlightAware Transoceanic
03:59PM 41.2932 -65.8473 259° West 456 525 43,000  Level FlightAware Transoceanic
04:00PM 41.2687 -66.0123 259° West 456 525 43,000  Level FlightAware Transoceanic
04:01PM 41.2439 -66.1772 259° West 456 525 43,000  Level FlightAware Transoceanic
04:02PM 41.2189 -66.3420 259° West 456 525 43,000  Level FlightAware Transoceanic
04:03PM 41.1937 -66.5067 258° West 456 525 43,000  Level FlightAware Transoceanic
04:04PM 41.1683 -66.6713 258° West 456 525 43,000  Level FlightAware Transoceanic
04:05PM 41.1426 -66.8357 258° West 456 525 43,000  Level FlightAware Transoceanic
04:06PM 41.1167 -67.0000 276° West 456 525 43,000  Level FlightAware Transoceanic
04:07PM 41.1306 -67.1798 276° West 456 525 43,000  Level FlightAware Transoceanic
04:08PM 41.1442 -67.3598 276° West 456 525 43,000  Level FlightAware Transoceanic
04:09PM 41.1575 -67.5398 276° West 456 525 43,000  Level FlightAware Transoceanic
04:10PM 41.1706 -67.7199 275° West 456 525 43,000  Level FlightAware Transoceanic
04:11PM 41.1833 -67.8835 276° West  Level FlightAware Approximate
04:12PM 41.1752 -67.7193 94° East  Level FlightAware Approximate
04:13PM 41.1712 -67.8837 281° West  Level Estimated
04:14PM 41.2011 -68.0434 284° West  Level FlightAware Approximate
04:14PM 41.2314 -68.1669 284° West 471 542 43,000  Level Boston Center
04:15PM 41.2561 -68.3281 282° West 456 525 43,000  Level Boston Center
04:16PM 41.2850 -68.4922 283° West 456 525 43,000  Level Boston Center
04:17PM 41.3217 -68.6503 287° West 450 518 43,000  Level Boston Center
04:18PM 41.3508 -68.7758 287° West 450 518 43,000  Level Boston Center
04:19PM 41.3922 -68.9644 286° West 450 518 43,000  Level Boston Center
04:20PM 41.4283 -69.1231 287° West 450 518 43,000  Level Boston Center
04:21PM 41.4619 -69.2736 287° West 450 518 43,000  Level Boston Center
04:22PM 41.4956 -69.4328 286° West 445 512 43,000  Level Boston Center
04:23PM 41.5219 -69.5703 284° West 434 499 43,000  Level Boston Center
04:24PM 41.5572 -69.7269 287° West 434 499 43,000  Level Boston Center
04:25PM 41.5878 -69.8811 285° West 434 499 43,000 -480 Level Boston Center
04:26PM 41.6244 -70.0350 288° West 434 499 42,100 -2,340 Descending Boston Center
04:27PM 41.6589 -70.1922 286° West 434 499 38,400 -3,780 Descending Boston Center
04:28PM 41.6914 -70.3522 285° West 434 499 34,600 -3,780 Descending Boston Center
04:29PM 41.7253 -70.5125 286° West 440 506 30,900 -3,300 Descending Boston Center
04:30PM 41.7531 -70.6731 283° West 445 512 28,000 -1,500 Descending Boston Center
04:31PM 41.7972 -70.8472 289° West 450 518 28,000  Level Boston Center
04:32PM 41.8283 -70.9942 286° West 460 529 28,000 -300 Level Boston Center
04:33PM 41.8575 -71.1467 284° West 447 514 27,500 -780 Descending Boston Center
04:34PM 41.8903 -71.2939 287° West 429 494 26,500 -1,020 Descending Boston Center
04:35PM 41.9208 -71.4439 285° West 422 486 25,500 -1,020 Descending Boston Center
04:36PM 41.9492 -71.6056 283° West 412 474 24,500 -1,020 Descending Boston Center
04:37PM 41.9772 -71.7531 284° West 412 474 23,500 -1,020 Descending Boston Center
04:38PM 42.0053 -71.8953 285° West 412 474 22,500 -900 Descending Boston Center
04:39PM 42.0328 -72.0403 284° West 412 474 21,800 -1,140 Descending Boston Center
04:40PM 42.0625 -72.1911 285° West 412 474 20,300 -1,800 Descending Boston Center
04:41PM 42.0897 -72.3394 284° West 412 474 18,300 -2,100 Descending Boston Center
04:42PM 42.1150 -72.4653 285° West 400 460 16,100 -1,140 Descending Boston Center
04:43PM 42.1439 -72.6219 284° West 394 453 16,100  Level Boston Center
04:44PM 42.1581 -72.7650 278° West 394 453 16,100  Level Boston Center
04:46PM 42.1494 -72.8936 265° West 389 448 16,100 -60 Level Boston Center
04:47PM 42.1403 -73.0561 266° West 389 448 16,000  Descending Boston Center
04:48PM 42.1289 -73.2267 265° West 389 448 16,100  Climbing Boston Center
04:49PM 42.1172 -73.3750 264° West 389 448 16,000 -60 Descending Boston Center
04:50PM 42.1078 -73.5203 265° West 395 455 16,000 -600 Level Boston Center
04:51PM 42.0958 -73.6656 264° West 395 455 14,900 -960 Descending Boston Center
04:52PM 42.0858 -73.8025 264° West 387 445 14,100 -480 Descending Boston Center
04:53PM 42.0758 -73.9450 265° West 387 445 14,000 -300 Descending Boston Center
04:54PM 42.0592 -74.0872 261° West 387 445 13,600 -1,140 Descending Boston Center
04:55PM 41.9931 -74.1889 229° Southwest 367 422 11,800 -1,860 Descending Boston Center
04:56PM 41.9294 -74.2539 217° Southwest 339 390 9,900 -1,800 Descending Boston Center
04:57PM 41.8594 -74.3244 217° Southwest 301 346 8,200 -960 Descending Boston Center
04:58PM 41.8044 -74.3756 215° Southwest 284 327 8,000 -120 Descending Boston Center
04:59PM 41.7386 -74.4406 216° Southwest 278 320 8,000  Level Boston Center
05:00PM 41.6836 -74.4944 216° Southwest 272 313 8,000  Level Boston Center
05:01PM 41.5989 -74.5608 210° Southwest 277 319 8,000 -60 Level Boston Center
05:02PM 41.5239 -74.5697 185° South 272 313 7,900 -600 Descending Boston Center
05:04PM 41.3500 -74.6167 191° South 267 307 6,000 -600 Descending New York TRACON
05:05PM 41.2667 -74.6500 197° South 263 303 6,000 -360 Level New York TRACON
05:06PM 41.2000 -74.6500 180° South 270 311 5,300 -1,080 Descending New York TRACON
05:07PM 41.1333 -74.6500 180° South 278 320 4,000 -1,200 Descending New York TRACON
05:08PM 41.0500 -74.6000 156° South 280 322 3,100 -540 Descending New York TRACON
05:09PM 40.9833 -74.5667 159° South 276 318 3,000  Descending New York TRACON
05:10PM 40.9500 -74.5000 123° Southeast 233 268 3,100  Climbing New York TRACON
05:11PM 40.9000 -74.5000 180° South 230 265 3,000 -60 Descending New York TRACON
05:12PM 40.8667 -74.5667 237° Southwest 220 253 3,000  Level New York TRACON
05:13PM 40.8167 -74.6000 207° Southwest 238 274 3,000  Level New York TRACON
05:14PM 40.7667 -74.5333 135° Southeast 235 270 3,000 -180 Level New York TRACON
05:15PM 40.7333 -74.4667 123° Southeast 213 245 2,700 -540 Descending New York TRACON
05:16PM 40.7000 -74.4000 123° Southeast 202 232 2,000 -360 Descending New York TRACON
05:17PM 40.7000 -74.3333 90° East 192 221 2,000  Level New York TRACON
05:18PM 40.7167 -74.2667 72° East 191 220 2,000 -180 Level New York TRACON
05:19PM 40.7500 -74.2167 49° Northeast 186 214 1,700 -240 Descending New York TRACON
05:20PM 40.7833 -74.1667 49° Northeast 187 215 1,600 -360 Descending New York TRACON
05:21PM 40.8167 -74.1167 49° Northeast 183 211 1,100 -540 Descending New York TRACON